createdAt,value
2023-03-12T00:00:34.537Z,960.12
2023-03-12T00:01:34.353Z,960.08
2023-03-12T00:02:34.537Z,960.07
2023-03-12T00:03:34.336Z,960.06
2023-03-12T00:04:35.334Z,960.07
2023-03-12T00:05:34.177Z,960.07
2023-03-12T00:06:34.328Z,960.04
2023-03-12T00:07:34.071Z,960.05
2023-03-12T00:08:34.232Z,960.03
2023-03-12T00:09:33.976Z,960.06
2023-03-12T00:10:34.255Z,960.06
2023-03-12T00:11:33.881Z,960.05
2023-03-12T00:12:34.068Z,960.06
2023-03-12T00:13:33.785Z,960.09
2023-03-12T00:14:33.865Z,960.14
2023-03-12T00:15:33.694Z,960.12
2023-03-12T00:16:34.931Z,960.14
2023-03-12T00:17:33.876Z,960.14
2023-03-12T00:18:33.552Z,960.12
2023-03-12T00:19:33.529Z,960.08
2023-03-12T00:20:33.778Z,960.10
2023-03-12T00:21:33.422Z,960.08
2023-03-12T00:22:33.517Z,960.07
2023-03-12T00:23:33.318Z,960.15
2023-03-12T00:24:33.288Z,960.12
2023-03-12T00:25:33.225Z,960.12
2023-03-12T00:26:33.341Z,960.09
2023-03-12T00:27:33.121Z,960.07
2023-03-12T00:28:33.563Z,960.07
2023-03-12T00:29:33.162Z,960.05
2023-03-12T00:30:32.984Z,960.10
2023-03-12T00:31:33.231Z,960.09
2023-03-12T00:32:32.910Z,960.10
2023-03-12T00:33:32.979Z,960.08
2023-03-12T00:34:33.050Z,960.13
2023-03-12T00:35:33.002Z,960.13
2023-03-12T00:36:32.689Z,960.14
2023-03-12T00:37:32.809Z,960.14
2023-03-12T00:38:32.599Z,960.12
2023-03-12T00:39:32.720Z,960.16
2023-03-12T00:40:32.838Z,960.16
2023-03-12T00:41:32.464Z,960.20
2023-03-12T00:42:32.422Z,960.13
2023-03-12T00:43:32.545Z,960.18
2023-03-12T00:44:32.313Z,960.14
2023-03-12T00:45:32.454Z,960.18
2023-03-12T00:46:32.299Z,960.21
2023-03-12T00:47:32.174Z,960.13
2023-03-12T00:48:32.123Z,960.19
2023-03-12T00:49:32.287Z,960.23
2023-03-12T00:50:32.034Z,960.19
2023-03-12T00:51:32.095Z,960.19
2023-03-12T00:52:32.207Z,960.23
2023-03-12T00:53:31.889Z,960.22
2023-03-12T00:54:32.106Z,960.21
2023-03-12T00:55:31.789Z,960.18
2023-03-12T00:56:31.930Z,960.20
2023-03-12T00:57:31.695Z,960.16
2023-03-12T00:58:31.966Z,960.19
2023-03-12T00:59:31.603Z,960.19
2023-03-12T01:00:31.808Z,960.15
2023-03-12T01:01:31.520Z,960.15
2023-03-12T01:02:31.555Z,960.14
2023-03-12T01:03:31.415Z,960.14
2023-03-12T01:04:31.653Z,960.15
2023-03-12T01:05:32.145Z,960.17
2023-03-12T01:06:31.488Z,960.16
2023-03-12T01:07:31.229Z,960.14
2023-03-12T01:08:31.302Z,960.17
2023-03-12T01:09:31.124Z,960.20
2023-03-12T01:10:31.096Z,960.17
2023-03-12T01:11:31.030Z,960.19
2023-03-12T01:12:31.116Z,960.23
2023-03-12T01:13:30.977Z,960.25
2023-03-12T01:14:31.029Z,960.25
2023-03-12T01:15:30.878Z,960.29
2023-03-12T01:16:31.085Z,960.26
2023-03-12T01:17:30.746Z,960.28
2023-03-12T01:18:31.004Z,960.28
2023-03-12T01:19:30.648Z,960.33
2023-03-12T01:20:30.799Z,960.32
2023-03-12T01:21:30.575Z,960.32
2023-03-12T01:22:30.544Z,960.36
2023-03-12T01:23:30.618Z,960.31
2023-03-12T01:24:30.422Z,960.32
2023-03-12T01:25:30.625Z,960.33
2023-03-12T01:26:30.324Z,960.31
2023-03-12T01:27:30.268Z,960.35
2023-03-12T01:28:31.508Z,960.35
2023-03-12T01:29:30.543Z,960.38
2023-03-12T01:30:30.138Z,960.37
2023-03-12T01:31:30.275Z,960.41
2023-03-12T01:32:30.109Z,960.43
2023-03-12T01:33:29.984Z,960.42
2023-03-12T01:34:29.954Z,960.44
2023-03-12T01:35:30.106Z,960.42
2023-03-12T01:36:29.927Z,960.47
2023-03-12T01:37:30.080Z,960.45
2023-03-12T01:38:29.768Z,960.44
2023-03-12T01:39:29.691Z,960.41
2023-03-12T01:40:29.999Z,960.44
2023-03-12T01:41:29.618Z,960.43
2023-03-12T01:42:31.748Z,960.40
2023-03-12T01:43:29.527Z,960.41
2023-03-12T01:44:29.754Z,960.41
2023-03-12T01:45:29.540Z,960.43
2023-03-12T01:46:31.575Z,960.40
2023-03-12T01:47:29.319Z,960.38
2023-03-12T01:48:30.463Z,960.44
2023-03-12T01:49:29.249Z,960.42
2023-03-12T01:50:29.460Z,960.42
2023-03-12T01:51:29.124Z,960.44
2023-03-12T01:52:29.462Z,960.43
2023-03-12T01:53:29.032Z,960.42
2023-03-12T01:54:29.067Z,960.48
2023-03-12T01:55:28.931Z,960.39
2023-03-12T01:56:28.888Z,960.40
2023-03-12T01:57:28.885Z,960.35
2023-03-12T01:58:29.205Z,960.31
2023-03-12T01:59:28.808Z,960.34
2023-03-12T02:00:28.814Z,960.28
2023-03-12T02:01:28.747Z,960.26
2023-03-12T02:02:28.621Z,960.24
2023-03-12T02:03:28.553Z,960.28
2023-03-12T02:04:28.839Z,960.31
2023-03-12T02:05:28.456Z,960.28
2023-03-12T02:06:28.647Z,960.33
2023-03-12T02:07:28.366Z,960.30
2023-03-12T02:08:28.312Z,960.28
2023-03-12T02:09:28.464Z,960.26
2023-03-12T02:10:28.254Z,960.25
2023-03-12T02:11:28.493Z,960.32
2023-03-12T02:12:28.133Z,960.32
2023-03-12T02:13:28.289Z,960.31
2023-03-12T02:14:28.027Z,960.27
2023-03-12T02:15:28.098Z,960.34
2023-03-12T02:16:28.044Z,960.25
2023-03-12T02:17:28.329Z,960.25
2023-03-12T02:18:27.847Z,960.25
2023-03-12T02:19:27.870Z,960.24
2023-03-12T02:20:27.816Z,960.25
2023-03-12T02:21:27.840Z,960.25
2023-03-12T02:22:27.652Z,960.26
2023-03-12T02:23:28.050Z,960.28
2023-03-12T02:24:27.554Z,960.22
2023-03-12T02:25:27.512Z,960.25
2023-03-12T02:26:27.459Z,960.23
2023-03-12T02:27:27.689Z,960.21
2023-03-12T02:28:27.398Z,960.21
2023-03-12T02:29:27.491Z,960.22
2023-03-12T02:30:27.305Z,960.20
2023-03-12T02:31:27.266Z,960.13
2023-03-12T02:32:27.331Z,960.20
2023-03-12T02:33:27.132Z,960.16
2023-03-12T02:34:27.315Z,960.21
2023-03-12T02:35:27.185Z,960.24
2023-03-12T02:36:27.152Z,960.23
2023-03-12T02:37:26.937Z,960.19
2023-03-12T02:38:27.135Z,960.20
2023-03-12T02:39:26.838Z,960.21
2023-03-12T02:40:26.955Z,960.21
2023-03-12T02:41:26.778Z,960.21
2023-03-12T02:42:26.744Z,960.24
2023-03-12T02:43:26.654Z,960.20
2023-03-12T02:44:26.775Z,960.23
2023-03-12T02:45:26.568Z,960.24
2023-03-12T02:46:26.906Z,960.24
2023-03-12T02:47:27.349Z,960.25
2023-03-12T02:48:26.417Z,960.29
2023-03-12T02:49:26.365Z,960.34
2023-03-12T02:50:26.509Z,960.32
2023-03-12T02:51:26.283Z,960.34
2023-03-12T02:52:26.528Z,960.32
2023-03-12T02:53:26.257Z,960.35
2023-03-12T02:54:26.139Z,960.33
2023-03-12T02:55:26.089Z,960.35
2023-03-12T02:56:26.256Z,960.35
2023-03-12T02:57:27.143Z,960.34
2023-03-12T02:58:26.161Z,960.36
2023-03-12T02:59:25.901Z,960.38
2023-03-12T03:00:25.852Z,960.36
2023-03-12T03:01:26.124Z,960.35
2023-03-12T03:02:25.787Z,960.37
2023-03-12T03:03:26.014Z,960.35
2023-03-12T03:04:25.697Z,960.32
2023-03-12T03:05:25.817Z,960.34
2023-03-12T03:06:25.567Z,960.30
2023-03-12T03:07:26.648Z,960.26
2023-03-12T03:08:26.694Z,960.26
2023-03-12T03:09:25.526Z,960.25
2023-03-12T03:10:25.402Z,960.23
2023-03-12T03:11:25.321Z,960.18
2023-03-12T03:12:25.283Z,960.05
2023-03-12T03:13:25.453Z,960.08
2023-03-12T03:14:25.197Z,960.03
2023-03-12T03:15:28.586Z,960.04
2023-03-12T03:16:25.082Z,960.09
2023-03-12T03:17:25.041Z,960.13
2023-03-12T03:18:24.985Z,960.14
2023-03-12T03:19:25.094Z,960.15
2023-03-12T03:20:24.893Z,960.12
2023-03-12T03:21:25.102Z,960.11
2023-03-12T03:22:24.964Z,960.14
2023-03-12T03:23:24.769Z,960.12
2023-03-12T03:24:24.934Z,960.08
2023-03-12T03:25:24.803Z,960.09
2023-03-12T03:26:24.740Z,960.10
2023-03-12T03:27:24.567Z,960.08
2023-03-12T03:28:24.841Z,960.04
2023-03-12T03:29:24.549Z,960.10
2023-03-12T03:30:24.579Z,960.12
2023-03-12T03:31:24.706Z,960.06
2023-03-12T03:32:24.595Z,960.07
2023-03-12T03:33:24.271Z,960.03
2023-03-12T03:34:24.221Z,959.96
2023-03-12T03:35:24.188Z,959.94
2023-03-12T03:36:24.394Z,959.92
2023-03-12T03:37:24.119Z,959.92
2023-03-12T03:38:24.202Z,959.83
2023-03-12T03:39:24.083Z,959.79
2023-03-12T03:40:23.963Z,959.76
2023-03-12T03:41:23.897Z,959.75
2023-03-12T03:42:24.025Z,959.76
2023-03-12T03:43:24.154Z,959.80
2023-03-12T03:44:24.094Z,959.77
2023-03-12T03:45:23.756Z,959.74
2023-03-12T03:46:23.701Z,959.84
2023-03-12T03:47:23.613Z,959.89
2023-03-12T03:48:24.817Z,960.04
2023-03-12T03:49:23.559Z,960.12
2023-03-12T03:50:23.792Z,960.12
2023-03-12T03:51:23.431Z,960.15
2023-03-12T03:52:23.365Z,960.20
2023-03-12T03:53:23.617Z,960.23
2023-03-12T03:54:23.272Z,960.24
2023-03-12T03:55:23.632Z,960.28
2023-03-12T03:56:23.185Z,960.26
2023-03-12T03:57:23.130Z,960.27
2023-03-12T03:58:23.083Z,960.25
2023-03-12T03:59:23.240Z,960.22
2023-03-12T04:00:22.995Z,960.22
2023-03-12T04:01:23.263Z,960.23
2023-03-12T04:02:22.893Z,960.26
2023-03-12T04:03:22.889Z,960.21
2023-03-12T04:04:22.843Z,960.21
2023-03-12T04:05:23.920Z,960.23
2023-03-12T04:06:22.710Z,960.20
2023-03-12T04:07:23.186Z,960.26
2023-03-12T04:08:22.601Z,960.25
2023-03-12T04:09:22.555Z,960.22
2023-03-12T04:10:24.643Z,960.23
2023-03-12T04:11:22.473Z,960.23
2023-03-12T04:12:22.609Z,960.23
2023-03-12T04:13:22.384Z,960.22
2023-03-12T04:14:23.517Z,960.20
2023-03-12T04:15:22.319Z,960.18
2023-03-12T04:16:24.421Z,960.16
2023-03-12T04:17:22.182Z,960.17
2023-03-12T04:18:22.377Z,960.12
2023-03-12T04:19:23.432Z,960.04
2023-03-12T04:20:22.160Z,960.08
2023-03-12T04:21:21.994Z,960.04
2023-03-12T04:22:22.173Z,960.08
2023-03-12T04:23:21.892Z,960.06
2023-03-12T04:24:21.983Z,960.08
2023-03-12T04:25:21.852Z,960.05
2023-03-12T04:26:21.753Z,960.07
2023-03-12T04:27:21.891Z,960.01
2023-03-12T04:28:22.836Z,960.02
2023-03-12T04:29:21.611Z,960.07
2023-03-12T04:30:21.825Z,960.05
2023-03-12T04:31:21.566Z,959.98
2023-03-12T04:32:21.489Z,960.03
2023-03-12T04:33:21.458Z,960.05
2023-03-12T04:34:21.539Z,960.10
2023-03-12T04:35:21.331Z,960.06
2023-03-12T04:36:21.559Z,960.13
2023-03-12T04:37:21.256Z,960.13
2023-03-12T04:38:21.187Z,960.10
2023-03-12T04:39:21.580Z,960.15
2023-03-12T04:40:21.108Z,960.13
2023-03-12T04:41:21.389Z,960.11
2023-03-12T04:42:21.000Z,960.10
2023-03-12T04:43:22.234Z,960.15
2023-03-12T04:44:20.906Z,960.10
2023-03-12T04:45:21.007Z,960.12
2023-03-12T04:46:20.841Z,960.13
2023-03-12T04:47:21.233Z,960.12
2023-03-12T04:48:20.721Z,960.11
2023-03-12T04:49:20.666Z,960.07
2023-03-12T04:50:20.643Z,960.07
2023-03-12T04:51:20.848Z,960.04
2023-03-12T04:52:20.531Z,960.02
2023-03-12T04:53:20.711Z,960.06
2023-03-12T04:54:20.433Z,960.02
2023-03-12T04:55:20.384Z,959.97
2023-03-12T04:56:20.352Z,959.99
2023-03-12T04:57:20.484Z,959.96
2023-03-12T04:58:20.269Z,959.93
2023-03-12T04:59:20.507Z,959.92
2023-03-12T05:00:20.175Z,959.92
2023-03-12T05:01:20.102Z,959.98
2023-03-12T05:02:20.212Z,960.01
2023-03-12T05:03:20.014Z,959.99
2023-03-12T05:04:20.126Z,960.00
2023-03-12T05:05:19.954Z,960.06
2023-03-12T05:06:19.933Z,959.99
2023-03-12T05:07:19.821Z,959.98
2023-03-12T05:08:20.154Z,959.85
2023-03-12T05:09:19.730Z,959.94
2023-03-12T05:10:19.767Z,959.96
2023-03-12T05:11:19.629Z,960.07
2023-03-12T05:12:19.596Z,960.11
2023-03-12T05:13:19.548Z,960.13
2023-03-12T05:14:19.791Z,960.14
2023-03-12T05:15:19.500Z,960.20
2023-03-12T05:16:19.663Z,960.12
2023-03-12T05:17:19.350Z,960.13
2023-03-12T05:18:19.303Z,960.15
2023-03-12T05:19:19.261Z,960.20
2023-03-12T05:20:19.432Z,960.18
2023-03-12T05:21:19.156Z,960.17
2023-03-12T05:22:19.237Z,960.19
2023-03-12T05:23:19.050Z,960.15
2023-03-12T05:24:19.115Z,960.20
2023-03-12T05:25:18.967Z,960.22
2023-03-12T05:26:19.059Z,960.26
2023-03-12T05:27:18.867Z,960.32
2023-03-12T05:28:18.984Z,960.33
2023-03-12T05:29:18.780Z,960.38
2023-03-12T05:30:18.734Z,960.43
2023-03-12T05:31:18.958Z,960.46
2023-03-12T05:32:18.798Z,960.52
2023-03-12T05:33:18.704Z,960.48
2023-03-12T05:34:18.552Z,960.45
2023-03-12T05:35:18.492Z,960.41
2023-03-12T05:36:18.444Z,960.46
2023-03-12T05:37:18.527Z,960.42
2023-03-12T05:38:18.381Z,960.47
2023-03-12T05:39:18.334Z,960.52
2023-03-12T05:40:18.258Z,960.52
2023-03-12T05:41:18.207Z,960.49
2023-03-12T05:42:18.160Z,960.49
2023-03-12T05:43:18.168Z,960.48
2023-03-12T05:44:18.220Z,960.43
2023-03-12T05:45:18.182Z,960.43
2023-03-12T05:46:18.040Z,960.36
2023-03-12T05:47:17.926Z,960.26
2023-03-12T05:48:17.887Z,960.22
2023-03-12T05:49:17.908Z,960.20
2023-03-12T05:50:17.807Z,960.26
2023-03-12T05:51:17.838Z,960.24
2023-03-12T05:52:17.691Z,960.25
2023-03-12T05:53:17.639Z,960.26
2023-03-12T05:54:17.653Z,960.26
2023-03-12T05:55:17.549Z,960.29
2023-03-12T05:56:17.846Z,960.29
2023-03-12T05:57:17.443Z,960.21
2023-03-12T05:58:18.478Z,960.19
2023-03-12T05:59:17.355Z,960.21
2023-03-12T06:03:47.619Z,960.21
2023-03-12T06:04:47.186Z,960.21
2023-03-12T06:05:47.187Z,960.23
2023-03-12T06:06:47.136Z,960.29
2023-03-12T06:07:47.103Z,960.23
2023-03-12T06:08:46.992Z,960.23
2023-03-12T06:09:47.324Z,960.24
2023-03-12T06:10:46.949Z,960.24
2023-03-12T06:11:46.934Z,960.22
2023-03-12T06:12:46.806Z,960.21
2023-03-12T06:13:46.947Z,960.21
2023-03-12T06:14:46.699Z,960.26
2023-03-12T06:15:46.804Z,960.21
2023-03-12T06:16:46.635Z,960.18
2023-03-12T06:17:46.809Z,960.17
2023-03-12T06:18:46.509Z,960.13
2023-03-12T06:19:46.576Z,960.19
2023-03-12T06:20:46.425Z,960.19
2023-03-12T06:21:46.410Z,960.23
2023-03-12T06:22:46.316Z,960.16
2023-03-12T06:23:46.517Z,960.18
2023-03-12T06:24:46.231Z,960.19
2023-03-12T06:25:46.208Z,960.24
2023-03-12T06:26:46.143Z,960.23
2023-03-12T06:27:46.291Z,960.26
2023-03-12T06:28:46.248Z,960.25
2023-03-12T06:29:45.985Z,960.26
2023-03-12T06:30:46.257Z,960.25
2023-03-12T06:31:45.924Z,960.31
2023-03-12T06:32:46.092Z,960.34
2023-03-12T06:33:45.786Z,960.36
2023-03-12T06:34:45.888Z,960.39
2023-03-12T06:35:45.715Z,960.39
2023-03-12T06:36:45.890Z,960.42
2023-03-12T06:37:54.809Z,960.42
2023-03-12T06:38:45.553Z,960.44
2023-03-12T06:39:45.528Z,960.43
2023-03-12T06:40:53.845Z,960.37
2023-03-12T06:42:06.422Z,960.42
2023-03-12T06:42:47.563Z,960.47
2023-03-12T06:43:53.900Z,960.42
2023-03-12T06:44:45.262Z,960.49
2023-03-12T06:45:45.409Z,960.47
2023-03-12T06:47:07.255Z,960.58
2023-03-12T06:47:45.119Z,960.57
2023-03-12T06:50:17.361Z,960.62
2023-03-12T06:51:17.172Z,960.66
2023-03-12T06:52:19.172Z,960.65
2023-03-12T06:53:17.029Z,960.68
2023-03-12T06:54:17.132Z,960.68
2023-03-12T06:55:17.193Z,960.78
2023-03-12T06:56:16.894Z,960.82
2023-03-12T06:57:16.844Z,960.82
2023-03-12T06:58:16.965Z,960.89
2023-03-12T06:59:16.768Z,960.87
2023-03-12T07:00:16.911Z,960.88
2023-03-12T07:01:16.692Z,960.93
2023-03-12T07:02:16.795Z,960.96
2023-03-12T07:03:16.612Z,960.94
2023-03-12T07:04:16.706Z,960.92
2023-03-12T07:05:16.535Z,961.03
2023-03-12T07:06:16.540Z,961.01
2023-03-12T07:07:16.387Z,960.94
2023-03-12T07:08:16.361Z,960.96
2023-03-12T07:09:16.331Z,960.91
2023-03-12T07:10:16.240Z,961.04
2023-03-12T07:11:16.455Z,961.00
2023-03-12T07:12:16.147Z,961.03
2023-03-12T07:13:16.361Z,961.16
2023-03-12T07:14:16.055Z,961.10
2023-03-12T07:15:16.196Z,961.07
2023-03-12T07:16:16.065Z,961.13
2023-03-12T07:17:15.982Z,961.12
2023-03-12T07:18:15.867Z,961.17
2023-03-12T07:19:16.147Z,961.18
2023-03-12T07:20:15.799Z,961.19
2023-03-12T07:21:15.909Z,961.17
2023-03-12T07:22:15.687Z,961.22
2023-03-12T07:23:15.738Z,961.21
2023-03-12T07:24:15.627Z,961.23
2023-03-12T07:25:17.289Z,961.19
2023-03-12T07:26:15.640Z,961.26
2023-03-12T07:27:15.468Z,961.28
2023-03-12T07:28:15.668Z,961.30
2023-03-12T07:29:15.363Z,961.30
2023-03-12T07:30:15.469Z,961.34
2023-03-12T07:31:15.596Z,961.29
2023-03-12T07:32:15.312Z,961.26
2023-03-12T07:33:15.261Z,961.21
2023-03-12T07:34:15.405Z,961.20
2023-03-12T07:35:15.096Z,961.23
2023-03-12T07:36:15.215Z,961.28
2023-03-12T07:37:15.017Z,961.27
2023-03-12T07:38:15.244Z,961.31
2023-03-12T07:39:14.899Z,961.27
2023-03-12T07:40:15.136Z,961.29
2023-03-12T07:41:14.841Z,961.32
2023-03-12T07:42:14.783Z,961.23
2023-03-12T07:43:14.714Z,961.25
2023-03-12T07:44:14.755Z,961.26
2023-03-12T07:45:14.693Z,961.26
2023-03-12T07:46:14.827Z,961.26
2023-03-12T07:47:23.733Z,961.19
2023-03-12T07:48:14.565Z,961.20
2023-03-12T07:49:14.602Z,961.25
2023-03-12T07:50:14.434Z,961.22
2023-03-12T07:51:14.740Z,961.24
2023-03-12T07:52:14.578Z,961.23
2023-03-12T07:53:16.307Z,961.25
2023-03-12T07:54:14.205Z,961.25
2023-03-12T07:55:14.371Z,961.23
2023-03-12T07:56:14.296Z,961.29
2023-03-12T07:57:14.306Z,961.26
2023-03-12T07:58:14.142Z,961.27
2023-03-12T07:59:15.533Z,961.33
2023-03-12T08:00:13.979Z,961.38
2023-03-12T08:01:14.980Z,961.38
2023-03-12T08:02:13.932Z,961.37
2023-03-12T08:03:14.080Z,961.41
2023-03-12T08:04:13.842Z,961.33
2023-03-12T08:05:13.693Z,961.35
2023-03-12T08:06:13.676Z,961.37
2023-03-12T08:07:14.020Z,961.38
2023-03-12T08:08:13.585Z,961.40
2023-03-12T08:09:15.853Z,961.43
2023-03-12T08:10:13.516Z,961.42
2023-03-12T08:11:13.420Z,961.37
2023-03-12T08:12:13.422Z,961.34
2023-03-12T08:13:13.665Z,961.39
2023-03-12T08:14:14.015Z,961.41
2023-03-12T08:15:13.434Z,961.40
2023-03-12T08:16:13.245Z,961.38
2023-03-12T08:17:13.143Z,961.39
2023-03-12T08:18:13.255Z,961.42
2023-03-12T08:19:13.318Z,961.43
2023-03-12T08:20:13.064Z,961.49
2023-03-12T08:21:15.235Z,961.52
2023-03-12T08:22:13.078Z,961.54
2023-03-12T08:23:12.857Z,961.48
2023-03-12T08:24:12.988Z,961.51
2023-03-12T08:25:12.803Z,961.53
2023-03-12T08:26:12.846Z,961.45
2023-03-12T08:27:12.682Z,961.49
2023-03-12T08:28:12.870Z,961.47
2023-03-12T08:29:12.580Z,961.45
2023-03-12T08:30:12.726Z,961.47
2023-03-12T08:31:12.531Z,961.45
2023-03-12T08:32:12.557Z,961.44
2023-03-12T08:33:12.412Z,961.49
2023-03-12T08:34:12.530Z,961.43
2023-03-12T08:35:12.457Z,961.44
2023-03-12T08:36:12.273Z,961.48
2023-03-12T08:37:12.486Z,961.45
2023-03-12T08:38:12.198Z,961.46
2023-03-12T08:39:12.289Z,961.48
2023-03-12T08:40:12.443Z,961.50
2023-03-12T08:41:12.032Z,961.53
2023-03-12T08:42:12.199Z,961.54
2023-03-12T08:43:11.955Z,961.54
2023-03-12T08:44:12.015Z,961.51
2023-03-12T08:45:11.868Z,961.55
2023-03-12T08:46:12.497Z,961.51
2023-03-12T08:47:11.791Z,961.54
2023-03-12T08:48:32.953Z,961.52
2023-03-12T08:49:11.675Z,961.51
2023-03-12T08:50:12.899Z,961.55
2023-03-12T08:51:16.391Z,961.57
2023-03-12T08:52:11.657Z,961.56
2023-03-12T08:53:11.537Z,961.60
2023-03-12T08:54:11.674Z,961.58
2023-03-12T08:55:11.399Z,961.58
2023-03-12T08:56:11.691Z,961.65
2023-03-12T08:57:13.540Z,961.66
2023-03-12T08:58:11.264Z,961.66
2023-03-12T08:59:11.316Z,961.65
2023-03-12T09:00:11.191Z,961.60
2023-03-12T09:01:12.342Z,961.58
2023-03-12T09:02:13.428Z,961.60
2023-03-12T09:03:11.140Z,961.55
2023-03-12T09:04:11.084Z,961.57
2023-03-12T09:05:11.157Z,961.60
2023-03-12T09:06:10.908Z,961.66
2023-03-12T09:07:10.972Z,961.68
2023-03-12T09:08:10.839Z,961.68
2023-03-12T09:09:10.987Z,961.74
2023-03-12T09:10:10.729Z,961.67
2023-03-12T09:11:32.913Z,961.71
2023-03-12T09:12:10.632Z,961.68
2023-03-12T09:13:10.813Z,961.69
2023-03-12T09:15:11.643Z,961.62
2023-03-12T09:16:10.460Z,961.77
2023-03-12T09:17:11.649Z,961.63
2023-03-12T09:18:10.368Z,961.70
2023-03-12T09:19:31.332Z,961.71
2023-03-12T09:20:10.278Z,961.78
2023-03-12T09:21:32.353Z,961.78
2023-03-12T09:22:10.184Z,961.84
2023-03-12T09:23:10.264Z,961.75
2023-03-12T09:24:10.089Z,961.77
2023-03-12T09:25:12.584Z,961.77
2023-03-12T09:26:10.053Z,961.79
2023-03-12T09:27:10.078Z,961.81
2023-03-12T09:28:09.916Z,961.81
2023-03-12T09:29:12.134Z,961.86
2023-03-12T09:30:09.822Z,961.87
2023-03-12T09:31:09.890Z,961.80
2023-03-12T09:32:09.912Z,961.84
2023-03-12T09:33:09.705Z,961.86
2023-03-12T09:34:09.916Z,961.82
2023-03-12T09:35:09.624Z,961.85
2023-03-12T09:36:10.232Z,961.86
2023-03-12T09:37:10.814Z,961.91
2023-03-12T09:38:09.741Z,961.88
2023-03-12T09:39:09.466Z,961.87
2023-03-12T09:40:09.561Z,961.94
2023-03-12T09:41:09.325Z,961.88
2023-03-12T09:42:09.279Z,961.94
2023-03-12T09:43:09.262Z,961.91
2023-03-12T09:44:09.381Z,961.88
2023-03-12T09:45:09.150Z,961.96
2023-03-12T09:46:09.335Z,961.93
2023-03-12T09:47:09.054Z,961.94
2023-03-12T09:48:09.014Z,961.95
2023-03-12T09:49:10.432Z,961.95
2023-03-12T09:50:08.919Z,961.99
2023-03-12T09:51:09.015Z,962.04
2023-03-12T09:52:08.827Z,962.00
2023-03-12T09:53:10.056Z,962.06
2023-03-12T09:54:08.739Z,962.01
2023-03-12T09:55:08.849Z,962.04
2023-03-12T09:56:08.736Z,962.11
2023-03-12T09:57:08.860Z,962.05
2023-03-12T09:58:08.556Z,962.14
2023-03-12T09:59:08.515Z,962.15
2023-03-12T10:00:08.468Z,962.18
2023-03-12T10:01:08.782Z,962.24
2023-03-12T10:02:08.377Z,962.24
2023-03-12T10:03:08.603Z,962.25
2023-03-12T10:04:08.320Z,962.31
2023-03-12T10:05:08.254Z,962.25
2023-03-12T10:06:08.223Z,962.31
2023-03-12T10:07:10.264Z,962.27
2023-03-12T10:08:24.034Z,962.32
2023-03-12T10:09:08.071Z,962.33
2023-03-12T10:10:08.014Z,962.42
2023-03-12T10:11:07.985Z,962.34
2023-03-12T10:12:07.924Z,962.34
2023-03-12T10:13:08.259Z,962.40
2023-03-12T10:14:07.850Z,962.34
2023-03-12T10:15:08.079Z,962.31
2023-03-12T10:16:07.795Z,962.32
2023-03-12T10:17:07.711Z,962.30
2023-03-12T10:18:07.997Z,962.35
2023-03-12T10:19:07.635Z,962.35
2023-03-12T10:20:08.829Z,962.30
2023-03-12T10:21:07.546Z,962.38
2023-03-12T10:22:08.639Z,962.36
2023-03-12T10:23:07.443Z,962.37
2023-03-12T10:24:08.866Z,962.39
2023-03-12T10:25:07.348Z,962.37
2023-03-12T10:26:07.432Z,962.49
2023-03-12T10:27:07.250Z,962.50
2023-03-12T10:28:07.272Z,962.52
2023-03-12T10:29:07.263Z,962.62
2023-03-12T10:30:07.294Z,962.66
2023-03-12T10:31:07.157Z,962.57
2023-03-12T10:32:07.283Z,962.75
2023-03-12T10:33:06.989Z,962.55
2023-03-12T10:34:06.943Z,962.67
2023-03-12T10:35:06.991Z,962.83
2023-03-12T10:36:07.053Z,962.73
2023-03-12T10:37:06.813Z,962.88
2023-03-12T10:38:06.910Z,962.78
2023-03-12T10:39:06.724Z,962.86
2023-03-12T10:40:06.992Z,962.81
2023-03-12T10:41:06.928Z,962.88
2023-03-12T10:42:06.582Z,962.87
2023-03-12T10:43:06.859Z,962.91
2023-03-12T10:44:06.494Z,962.92
2023-03-12T10:45:06.653Z,962.92
2023-03-12T10:46:06.660Z,962.94
2023-03-12T10:47:06.486Z,962.98
2023-03-12T10:48:06.328Z,962.98
2023-03-12T10:49:08.435Z,962.94
2023-03-12T10:50:06.234Z,962.94
2023-03-12T10:51:06.197Z,962.97
2023-03-12T10:52:06.456Z,962.96
2023-03-12T10:53:07.324Z,962.95
2023-03-12T10:54:06.065Z,963.03
2023-03-12T10:55:06.213Z,963.04
2023-03-12T10:56:06.030Z,963.00
2023-03-12T10:57:05.927Z,963.05
2023-03-12T10:58:05.907Z,963.08
2023-03-12T10:59:06.964Z,963.09
2023-03-12T11:00:05.797Z,963.07
2023-03-12T11:01:07.184Z,963.10
2023-03-12T11:02:05.772Z,963.05
2023-03-12T11:03:05.674Z,963.10
2023-03-12T11:04:05.617Z,963.13
2023-03-12T11:05:07.823Z,963.11
2023-03-12T11:06:05.539Z,963.12
2023-03-12T11:07:05.800Z,963.13
2023-03-12T11:08:05.438Z,963.15
2023-03-12T11:09:16.810Z,963.24
2023-03-12T11:10:05.355Z,963.29
2023-03-12T11:11:05.520Z,963.34
2023-03-12T11:12:05.393Z,963.34
2023-03-12T11:13:05.326Z,963.31
2023-03-12T11:14:05.331Z,963.30
2023-03-12T11:15:05.232Z,963.38
2023-03-12T11:16:05.281Z,963.42
2023-03-12T11:17:05.043Z,963.33
2023-03-12T11:18:05.259Z,963.38
2023-03-12T11:19:04.963Z,963.44
2023-03-12T11:20:04.933Z,963.51
2023-03-12T11:21:05.193Z,963.46
2023-03-12T11:22:04.849Z,963.45
2023-03-12T11:23:05.007Z,963.49
2023-03-12T11:24:04.771Z,963.53
2023-03-12T11:25:04.899Z,963.51
2023-03-12T11:26:04.695Z,963.52
2023-03-12T11:27:05.951Z,963.52
2023-03-12T11:28:04.638Z,963.55
2023-03-12T11:29:04.721Z,963.54
2023-03-12T11:30:04.501Z,963.45
2023-03-12T11:31:04.493Z,963.54
2023-03-12T11:32:04.548Z,963.56
2023-03-12T11:33:05.928Z,963.54
2023-03-12T11:34:04.334Z,963.53
2023-03-12T11:35:04.459Z,963.45
2023-03-12T11:36:04.321Z,963.49
2023-03-12T11:37:04.210Z,963.43
2023-03-12T11:38:04.307Z,963.45
2023-03-12T11:39:04.156Z,963.58
2023-03-12T11:40:04.311Z,963.48
2023-03-12T11:41:04.041Z,963.45
2023-03-12T11:42:05.139Z,963.53
2023-03-12T11:43:03.956Z,963.54
2023-03-12T11:44:05.360Z,963.56
2023-03-12T11:45:03.879Z,963.53
2023-03-12T11:46:04.137Z,963.55
2023-03-12T11:47:03.795Z,963.47
2023-03-12T11:48:03.954Z,963.46
2023-03-12T11:49:03.699Z,963.53
2023-03-12T11:50:03.962Z,963.54
2023-03-12T11:51:03.619Z,963.54
2023-03-12T11:52:12.864Z,963.48
2023-03-12T11:53:03.675Z,963.43
2023-03-12T11:54:26.621Z,963.42
2023-03-12T11:55:03.426Z,963.43
2023-03-12T11:56:04.510Z,963.44
2023-03-12T11:57:03.561Z,963.44
2023-03-12T11:58:04.528Z,963.39
2023-03-12T11:59:03.265Z,963.34
2023-03-12T12:00:05.646Z,963.33
2023-03-12T12:01:11.432Z,963.30
2023-03-12T12:02:04.392Z,963.32
2023-03-12T12:03:11.526Z,963.33
2023-03-12T12:04:03.340Z,963.31
2023-03-12T12:05:11.908Z,963.34
2023-03-12T12:06:03.157Z,963.36
2023-03-12T12:07:02.903Z,963.35
2023-03-12T12:08:03.177Z,963.34
2023-03-12T12:09:02.821Z,963.34
2023-03-12T12:10:02.977Z,963.31
2023-03-12T12:11:03.186Z,963.35
2023-03-12T12:12:05.330Z,963.28
2023-03-12T12:13:02.793Z,963.27
2023-03-12T12:14:02.612Z,963.26
2023-03-12T12:15:02.808Z,963.22
2023-03-12T12:16:02.557Z,963.25
2023-03-12T12:17:02.516Z,963.34
2023-03-12T12:18:02.628Z,963.22
2023-03-12T12:19:04.436Z,963.23
2023-03-12T12:20:02.639Z,963.33
2023-03-12T12:21:02.310Z,963.33
2023-03-12T12:22:02.451Z,963.31
2023-03-12T12:23:03.527Z,963.32
2023-03-12T12:24:02.466Z,963.30
2023-03-12T12:25:02.166Z,963.29
2023-03-12T12:26:02.282Z,963.36
2023-03-12T12:27:02.066Z,963.32
2023-03-12T12:28:03.312Z,963.29
2023-03-12T12:29:02.011Z,963.34
2023-03-12T12:30:02.222Z,963.26
2023-03-12T12:31:02.099Z,963.22
2023-03-12T12:32:02.043Z,963.30
2023-03-12T12:33:01.830Z,963.25
2023-03-12T12:34:01.772Z,963.26